Time;durP1;ratioP1;P1;durP2;ratioP2;P2;SDS_P1;SDS_P2;PMS_P1;PMS_P2;Temp;Humidity;BMP_temperature;BMP_pressure;BME280_temperature;BME280_humidity;BME280_pressure;Samples;Min_cycle;Max_cycle;Signal;HPM_P1;HPM_P2
2022/03/11 00:00:05;;;;;;;21.75;15.63;;;28.50;81.20;;;;;;5063365;28;20132;-41
2022/03/11 00:02:36;;;;;;;22.38;15.77;;;28.60;81.30;;;;;;5063208;28;20036;-40
2022/03/11 00:05:04;;;;;;;23.25;15.63;;;28.50;81.10;;;;;;5063091;28;20049;-42
2022/03/11 00:07:31;;;;;;;17.17;15.30;;;28.50;81.30;;;;;;5063093;28;20025;-43
2022/03/11 00:09:57;;;;;;;22.25;15.25;;;28.50;81.20;;;;;;5063260;28;20033;-42
2022/03/11 00:12:24;;;;;;;20.52;15.27;;;28.50;81.50;;;;;;5063053;28;20040;-43
2022/03/11 00:14:51;;;;;;;20.38;15.02;;;28.50;81.40;;;;;;5063059;28;20158;-42
2022/03/11 00:17:18;;;;;;;20.13;14.23;;;28.50;81.60;;;;;;5063111;28;20262;-48
2022/03/11 00:19:44;;;;;;;19.77;14.43;;;28.50;81.50;;;;;;5063136;28;20063;-40
2022/03/11 00:22:11;;;;;;;19.85;14.32;;;28.50;81.80;;;;;;5062913;28;20025;-47
2022/03/11 00:24:38;;;;;;;21.90;13.90;;;28.40;81.80;;;;;;5063546;28;20261;-44
2022/03/11 00:27:05;;;;;;;16.05;14.35;;;28.50;81.70;;;;;;5066189;28;20059;-40
2022/03/11 00:29:32;;;;;;;18.38;13.85;;;28.40;81.30;;;;;;5066685;28;20040;-43
2022/03/11 00:31:59;;;;;;;17.02;13.27;;;28.40;81.20;;;;;;5066586;28;20029;-39
2022/03/11 00:34:28;;;;;;;15.98;13.10;;;28.40;81.00;;;;;;5066662;28;20096;-42
2022/03/11 00:36:55;;;;;;;15.32;13.27;;;28.40;80.90;;;;;;5066341;28;20309;-44
2022/03/11 00:39:21;;;;;;;17.92;13.52;;;28.40;80.50;;;;;;5066400;28;20032;-41
2022/03/11 00:41:48;;;;;;;18.60;13.23;;;28.40;80.20;;;;;;5066451;28;20225;-38
2022/03/11 00:44:14;;;;;;;18.08;13.23;;;28.30;79.90;;;;;;5066273;28;20017;-40
2022/03/11 00:46:41;;;;;;;15.80;12.95;;;28.30;79.60;;;;;;5048659;28;20099;-45
2022/03/11 00:49:08;;;;;;;18.67;12.48;;;28.30;79.50;;;;;;5066213;28;20036;-41
2022/03/11 00:51:35;;;;;;;17.67;12.63;;;28.30;79.00;;;;;;5080102;28;20033;-42
2022/03/11 00:54:01;;;;;;;20.48;13.02;;;28.30;78.50;;;;;;5085668;28;20414;-40
2022/03/11 00:56:30;;;;;;;15.50;12.93;;;28.20;78.10;;;;;;5086189;28;20025;-38
2022/03/11 00:58:59;;;;;;;18.30;11.60;;;28.10;77.60;;;;;;5086017;28;20035;-39
2022/03/11 01:01:26;;;;;;;14.88;11.77;;;28.20;77.60;;;;;;5086536;28;20055;-40
2022/03/11 01:03:53;;;;;;;21.27;12.67;;;28.10;77.20;;;;;;5086154;28;20012;-43
2022/03/11 01:06:19;;;;;;;18.48;12.00;;;28.10;77.30;;;;;;5085934;28;20553;-47
2022/03/11 01:08:46;;;;;;;19.17;11.50;;;28.10;77.10;;;;;;5085915;28;20264;-41
2022/03/11 01:11:13;;;;;;;20.05;11.73;;;28.00;77.10;;;;;;5085755;28;20040;-41
2022/03/11 01:13:40;;;;;;;18.50;11.80;;;28.00;76.60;;;;;;5085702;28;20029;-41
2022/03/11 01:16:07;;;;;;;16.75;11.95;;;28.00;76.60;;;;;;5085972;28;20021;-42
2022/03/11 01:18:34;;;;;;;19.10;11.57;;;28.00;76.60;;;;;;5084992;28;20036;-43
2022/03/11 01:21:00;;;;;;;20.70;10.68;;;28.00;76.40;;;;;;5085884;28;20020;-39
2022/03/11 01:23:27;;;;;;;15.38;10.63;;;27.90;76.10;;;;;;5085373;28;20089;-39
2022/03/11 01:25:53;;;;;;;15.30;11.10;;;27.90;76.10;;;;;;5085530;28;20059;-40
2022/03/11 01:28:20;;;;;;;16.80;10.30;;;27.90;76.20;;;;;;5084353;28;20052;-39
2022/03/11 01:30:47;;;;;;;12.98;9.98;;;27.90;76.00;;;;;;5085817;28;20037;-38
2022/03/11 01:33:13;;;;;;;15.02;10.55;;;27.90;75.70;;;;;;5085127;28;20047;-38
2022/03/11 01:35:40;;;;;;;11.65;9.90;;;27.90;76.10;;;;;;5085570;28;20028;-46
2022/03/11 01:38:06;;;;;;;14.80;10.50;;;27.90;76.30;;;;;;5084159;28;20036;-41
2022/03/11 01:40:33;;;;;;;13.35;10.55;;;27.90;76.30;;;;;;5076576;28;20016;-40
2022/03/11 01:43:00;;;;;;;16.30;10.90;;;27.90;76.20;;;;;;5073660;28;20032;-41
2022/03/11 01:45:29;;;;;;;14.23;10.77;;;27.90;76.00;;;;;;5075223;28;20021;-46
2022/03/11 01:47:56;;;;;;;15.73;10.82;;;27.90;76.40;;;;;;5064569;28;20031;-39
2022/03/11 01:50:23;;;;;;;13.60;10.52;;;27.90;76.90;;;;;;5085404;28;20079;-40
2022/03/11 01:52:50;;;;;;;15.17;10.53;;;27.90;76.10;;;;;;5084929;28;20020;-39
2022/03/11 01:55:16;;;;;;;16.45;10.35;;;27.90;76.40;;;;;;5084653;28;20028;-41
2022/03/11 01:57:43;;;;;;;17.75;10.90;;;27.90;76.40;;;;;;5082023;28;20013;-42
2022/03/11 02:00:10;;;;;;;16.83;14.45;;;27.90;76.50;;;;;;5071778;28;20309;-38
2022/03/11 02:02:37;;;;;;;19.48;15.05;;;27.90;76.10;;;;;;5075778;28;20098;-40
2022/03/11 02:05:03;;;;;;;33.50;30.20;;;27.80;75.50;;;;;;5084668;28;20110;-39
2022/03/11 02:07:30;;;;;;;22.35;18.77;;;27.80;74.90;;;;;;5084711;28;20036;-38
2022/03/11 02:09:57;;;;;;;28.98;25.90;;;27.90;75.00;;;;;;5081857;28;20090;-39
2022/03/11 02:12:32;;;;;;;27.15;24.33;;;27.90;75.00;;;;;;5084179;28;20043;-39
2022/03/11 02:15:00;;;;;;;24.77;18.52;;;27.90;74.30;;;;;;5072655;28;20044;-38
2022/03/11 02:17:27;;;;;;;17.45;15.70;;;27.90;74.20;;;;;;5064671;28;20020;-39
2022/03/11 02:19:53;;;;;;;33.92;14.73;;;27.90;73.80;;;;;;5064681;28;20048;-39
2022/03/11 02:22:23;;;;;;;29.13;14.15;;;27.90;73.30;;;;;;5064304;28;20028;-39
2022/03/11 02:24:51;;;;;;;24.23;12.88;;;28.00;74.10;;;;;;5064531;28;20063;-39
2022/03/11 02:27:18;;;;;;;26.30;12.35;;;27.90;73.40;;;;;;5064291;28;20142;-37
2022/03/11 02:29:45;;;;;;;20.77;11.40;;;28.00;73.60;;;;;;5064183;28;20025;-38
2022/03/11 02:32:11;;;;;;;20.73;10.85;;;27.90;73.50;;;;;;5064553;28;20037;-39
2022/03/11 02:34:38;;;;;;;18.65;10.20;;;27.90;73.20;;;;;;5064413;28;20017;-37
2022/03/11 02:37:11;;;;;;;17.17;10.20;;;28.00;73.40;;;;;;5064348;28;20096;-38
2022/03/11 02:39:40;;;;;;;20.45;11.23;;;28.00;73.30;;;;;;5064079;28;20033;-39
2022/03/11 02:42:06;;;;;;;18.88;12.75;;;28.00;73.10;;;;;;5064140;28;20036;-42
2022/03/11 02:44:33;;;;;;;42.92;38.25;;;27.90;72.80;;;;;;5074862;28;20367;-45
2022/03/11 02:47:00;;;;;;;18.25;13.93;;;27.90;73.00;;;;;;5071900;28;20313;-38
2022/03/11 02:49:27;;;;;;;23.23;11.10;;;28.00;73.10;;;;;;5074056;28;19935;-38
2022/03/11 02:51:56;;;;;;;14.60;11.25;;;28.00;72.90;;;;;;5072517;28;20053;-38
2022/03/11 02:54:25;;;;;;;15.55;10.50;;;28.00;73.00;;;;;;5074244;28;20033;-40
2022/03/11 02:56:52;;;;;;;14.35;10.25;;;28.00;73.30;;;;;;5074275;28;20127;-37
2022/03/11 02:59:18;;;;;;;13.43;9.52;;;28.00;72.90;;;;;;5083867;28;20096;-38
2022/03/11 03:01:45;;;;;;;14.02;9.18;;;28.00;72.40;;;;;;5084059;28;20050;-37
2022/03/11 03:04:12;;;;;;;19.73;9.18;;;27.90;72.20;;;;;;5083789;28;20069;-39
2022/03/11 03:06:39;;;;;;;14.27;9.32;;;27.90;72.50;;;;;;5083642;28;20048;-46
2022/03/11 03:09:06;;;;;;;80.03;72.20;;;27.90;72.20;;;;;;5083898;28;20032;-41
2022/03/11 03:11:32;;;;;;;23.40;16.92;;;27.90;72.30;;;;;;5075302;28;20033;-38
2022/03/11 03:14:03;;;;;;;20.07;17.93;;;27.90;72.70;;;;;;5063678;28;20060;-41
2022/03/11 03:16:30;;;;;;;43.67;39.30;;;27.90;72.90;;;;;;5064376;28;20037;-41
2022/03/11 03:18:56;;;;;;;97.47;88.03;;;27.90;73.20;;;;;;5063796;28;20090;-42
2022/03/11 03:21:25;;;;;;;24.45;22.05;;;27.90;73.20;;;;;;5046290;28;20032;-42
2022/03/11 03:23:52;;;;;;;57.20;51.47;;;27.90;72.40;;;;;;5063715;28;20364;-40
2022/03/11 03:26:20;;;;;;;25.42;22.33;;;27.90;73.10;;;;;;5046080;28;20033;-38
2022/03/11 03:28:47;;;;;;;32.22;25.42;;;27.90;73.20;;;;;;5045888;28;20044;-39
2022/03/11 03:31:16;;;;;;;25.15;16.33;;;27.90;73.10;;;;;;5063922;28;20087;-41
2022/03/11 03:33:43;;;;;;;20.35;14.68;;;27.90;72.60;;;;;;5063457;28;20055;-36
2022/03/11 03:36:10;;;;;;;15.88;10.55;;;27.90;73.40;;;;;;5063981;28;20021;-42
2022/03/11 03:38:36;;;;;;;19.92;10.93;;;27.80;72.40;;;;;;5063759;28;20037;-38
2022/03/11 03:41:03;;;;;;;18.67;11.35;;;27.80;72.30;;;;;;5063896;28;20033;-44
2022/03/11 03:43:30;;;;;;;11.65;9.77;;;27.80;73.40;;;;;;5063508;28;20024;-41
2022/03/11 03:45:56;;;;;;;15.48;10.88;;;27.80;72.60;;;;;;5064030;28;20052;-39
2022/03/11 03:48:23;;;;;;;15.60;9.75;;;27.80;72.80;;;;;;5063489;28;20028;-39
2022/03/11 03:50:50;;;;;;;13.63;9.68;;;27.80;72.50;;;;;;5063619;28;20043;-47
2022/03/11 03:53:16;;;;;;;12.07;9.15;;;27.80;72.70;;;;;;5063320;28;20029;-38
2022/03/11 03:55:43;;;;;;;13.52;9.00;;;27.90;72.90;;;;;;5063894;28;20025;-38
2022/03/11 03:58:10;;;;;;;10.30;8.65;;;27.80;72.70;;;;;;5063329;28;20056;-39
2022/03/11 04:00:36;;;;;;;12.40;9.15;;;27.80;73.00;;;;;;5064457;28;20020;-39
2022/03/11 04:03:03;;;;;;;9.70;8.35;;;27.80;73.10;;;;;;5067163;28;20325;-37
2022/03/11 04:05:30;;;;;;;10.48;8.50;;;27.80;73.20;;;;;;5067098;28;20222;-38
2022/03/11 04:07:56;;;;;;;10.75;7.88;;;27.80;72.80;;;;;;5067316;28;20033;-38
2022/03/11 04:10:23;;;;;;;9.93;7.80;;;27.80;72.70;;;;;;5067404;28;20190;-39
2022/03/11 04:12:50;;;;;;;10.65;8.25;;;27.80;72.80;;;;;;5066883;28;20028;-38
2022/03/11 04:15:16;;;;;;;11.50;8.35;;;27.80;72.50;;;;;;5067118;28;20029;-39
2022/03/11 04:17:43;;;;;;;12.85;7.80;;;27.80;72.50;;;;;;5066839;28;20383;-37
2022/03/11 04:20:10;;;;;;;10.13;7.43;;;27.80;72.40;;;;;;5066939;28;20027;-43
2022/03/11 04:22:44;;;;;;;14.75;8.02;;;27.80;72.40;;;;;;5067098;28;20032;-38
2022/03/11 04:25:12;;;;;;;9.40;8.18;;;27.80;72.30;;;;;;5067004;28;20104;-38
2022/03/11 04:27:39;;;;;;;11.68;8.10;;;27.80;72.40;;;;;;5066602;28;20040;-38
2022/03/11 04:30:06;;;;;;;12.52;8.23;;;27.80;72.00;;;;;;5066897;28;20062;-39
2022/03/11 04:32:33;;;;;;;9.32;7.32;;;27.80;72.10;;;;;;5066798;28;20094;-41
2022/03/11 04:35:00;;;;;;;10.93;7.60;;;27.80;72.20;;;;;;5066701;28;20029;-38
2022/03/11 04:37:26;;;;;;;10.20;7.28;;;27.80;72.00;;;;;;5066720;28;20372;-38
2022/03/11 04:39:53;;;;;;;9.88;7.47;;;27.80;72.20;;;;;;5066731;28;20032;-37
2022/03/11 04:42:20;;;;;;;12.82;7.93;;;27.80;72.50;;;;;;5066437;28;20088;-38
2022/03/11 04:44:46;;;;;;;9.80;8.00;;;27.80;72.70;;;;;;5066711;28;20368;-39
2022/03/11 04:47:13;;;;;;;8.65;7.60;;;27.80;72.60;;;;;;5066496;28;20040;-39
2022/03/11 04:49:39;;;;;;;10.10;7.78;;;27.80;72.80;;;;;;5066295;28;20100;-40
2022/03/11 04:52:07;;;;;;;10.45;7.68;;;27.80;73.20;;;;;;5066210;28;20040;-40
2022/03/11 04:54:34;;;;;;;12.77;8.00;;;27.80;73.20;;;;;;5066381;28;20017;-39
2022/03/11 04:57:00;;;;;;;11.23;8.02;;;27.80;73.70;;;;;;5066035;28;20037;-37
2022/03/11 04:59:27;;;;;;;11.13;7.80;;;27.80;73.40;;;;;;5066134;28;20029;-38
2022/03/11 05:01:53;;;;;;;13.60;8.40;;;27.80;72.80;;;;;;5066336;28;20036;-39
2022/03/11 05:04:20;;;;;;;14.95;8.35;;;27.80;72.70;;;;;;5066066;28;20040;-44
2022/03/11 05:06:46;;;;;;;11.63;8.30;;;27.80;72.70;;;;;;5066265;28;20060;-43
2022/03/11 05:09:13;;;;;;;11.43;8.40;;;27.80;72.90;;;;;;5065985;28;20075;-40
2022/03/11 05:11:41;;;;;;;9.93;8.07;;;27.80;72.90;;;;;;5065468;28;20057;-42
2022/03/11 05:14:07;;;;;;;8.90;7.88;;;27.80;73.30;;;;;;5066074;28;19904;-40
2022/03/11 05:16:34;;;;;;;11.40;7.75;;;27.80;73.10;;;;;;5066131;28;20033;-40
2022/03/11 05:19:00;;;;;;;10.88;7.97;;;27.80;72.90;;;;;;5065652;28;20019;-41
2022/03/11 05:21:27;;;;;;;10.00;8.30;;;27.80;72.80;;;;;;5066202;28;20201;-40
2022/03/11 05:23:54;;;;;;;10.30;8.10;;;27.80;72.90;;;;;;5065624;28;20025;-39
2022/03/11 05:26:28;;;;;;;10.85;8.45;;;27.80;72.70;;;;;;5066562;28;20075;-40
2022/03/11 05:28:59;;;;;;;10.50;7.93;;;27.80;72.50;;;;;;5066194;28;20299;-38
2022/03/11 05:31:28;;;;;;;9.27;7.95;;;27.80;72.30;;;;;;5066310;28;20028;-38
2022/03/11 05:33:54;;;;;;;9.77;7.32;;;27.80;72.20;;;;;;5065385;28;20025;-39
2022/03/11 05:36:22;;;;;;;10.50;7.65;;;27.80;72.40;;;;;;5066106;28;20177;-39
2022/03/11 05:38:49;;;;;;;9.13;7.47;;;27.80;72.50;;;;;;5065391;28;20317;-37
2022/03/11 05:41:15;;;;;;;10.85;8.10;;;27.70;72.20;;;;;;5065732;28;20025;-39
2022/03/11 05:43:42;;;;;;;14.30;8.32;;;27.80;72.60;;;;;;5065870;28;20055;-44
2022/03/11 05:46:09;;;;;;;10.98;7.53;;;27.80;72.30;;;;;;5065794;28;20313;-38
2022/03/11 05:48:36;;;;;;;13.45;8.05;;;27.80;72.20;;;;;;5065306;28;20055;-38
2022/03/11 05:51:02;;;;;;;11.88;7.65;;;27.80;71.90;;;;;;5065814;28;20028;-41
2022/03/11 05:53:29;;;;;;;12.10;7.60;;;27.70;71.90;;;;;;5065118;28;20139;-37
2022/03/11 05:55:56;;;;;;;10.43;7.55;;;27.80;72.00;;;;;;5065370;28;20028;-38
2022/03/11 05:58:22;;;;;;;9.00;7.10;;;27.80;72.00;;;;;;5065483;28;20035;-41
2022/03/11 06:00:49;;;;;;;9.63;7.75;;;27.80;72.10;;;;;;5065849;28;20029;-39
2022/03/11 06:03:16;;;;;;;9.63;7.38;;;27.70;72.10;;;;;;5065133;28;20021;-38
2022/03/11 06:05:43;;;;;;;11.70;7.70;;;27.70;72.20;;;;;;5065358;28;20049;-39
2022/03/11 06:08:09;;;;;;;10.63;7.70;;;27.80;72.30;;;;;;5065293;28;20202;-39
2022/03/11 06:10:36;;;;;;;10.95;7.72;;;27.80;72.10;;;;;;5065207;28;20362;-38
2022/03/11 06:13:02;;;;;;;9.32;7.60;;;27.70;72.10;;;;;;5065019;28;20095;-39
2022/03/11 06:15:29;;;;;;;14.07;7.57;;;27.70;72.50;;;;;;5065847;28;20182;-38
2022/03/11 06:17:55;;;;;;;12.10;7.75;;;27.80;72.70;;;;;;5064703;28;20053;-40
2022/03/11 06:20:25;;;;;;;10.07;7.53;;;27.70;72.70;;;;;;5064910;28;20256;-38
2022/03/11 06:22:54;;;;;;;8.30;7.22;;;27.70;73.00;;;;;;5064249;28;20032;-38
2022/03/11 06:25:21;;;;;;;11.23;7.38;;;27.80;73.10;;;;;;5064485;28;20341;-38
2022/03/11 06:27:48;;;;;;;8.32;7.43;;;27.70;73.50;;;;;;5065093;28;20025;-44
2022/03/11 06:30:15;;;;;;;11.30;7.50;;;27.70;73.80;;;;;;5065216;28;20032;-39
2022/03/11 06:32:46;;;;;;;10.93;7.10;;;27.70;74.10;;;;;;5064233;28;20380;-38
2022/03/11 06:35:14;;;;;;;11.35;7.15;;;27.70;75.40;;;;;;5064619;28;20067;-38
2022/03/11 06:37:42;;;;;;;14.38;7.25;;;27.70;75.20;;;;;;5064390;28;20088;-39
2022/03/11 06:40:09;;;;;;;12.48;6.75;;;27.70;75.60;;;;;;5064278;28;20040;-40
2022/03/11 06:42:40;;;;;;;12.45;6.35;;;27.70;76.40;;;;;;5064169;28;20051;-41
2022/03/11 06:45:08;;;;;;;10.63;6.80;;;27.70;76.50;;;;;;5064369;28;20040;-40
2022/03/11 06:47:35;;;;;;;9.77;6.22;;;27.70;76.40;;;;;;5064023;28;20029;-39
2022/03/11 06:50:03;;;;;;;7.80;6.22;;;27.60;76.60;;;;;;5064489;28;20029;-39
2022/03/11 06:52:30;;;;;;;9.05;6.30;;;27.60;76.50;;;;;;5064029;28;20029;-39
2022/03/11 06:54:56;;;;;;;10.90;6.28;;;27.60;76.70;;;;;;5064365;28;20325;-42
2022/03/11 06:57:23;;;;;;;9.02;6.20;;;27.60;76.70;;;;;;5064285;28;20036;-39
2022/03/11 06:59:50;;;;;;;10.45;6.15;;;27.60;76.90;;;;;;5064573;28;20051;-38
2022/03/11 07:02:18;;;;;;;10.10;6.00;;;27.60;76.80;;;;;;5064064;28;19915;-42
2022/03/11 07:04:45;;;;;;;7.70;6.00;;;27.60;77.00;;;;;;5064060;28;20036;-39
2022/03/11 07:07:11;;;;;;;9.73;6.53;;;27.60;77.00;;;;;;5064015;28;20084;-39
2022/03/11 07:09:38;;;;;;;8.63;6.50;;;27.70;77.30;;;;;;5064159;28;20031;-38
2022/03/11 07:12:05;;;;;;;11.02;6.18;;;27.60;77.40;;;;;;5064073;28;20032;-38
2022/03/11 07:14:35;;;;;;;12.13;6.32;;;27.60;77.40;;;;;;5064026;28;20031;-41
2022/03/11 07:17:06;;;;;;;7.57;5.90;;;27.70;77.60;;;;;;5064098;28;20062;-37
2022/03/11 07:19:33;;;;;;;7.80;6.00;;;27.70;77.70;;;;;;5063739;28;20025;-40
2022/03/11 07:22:02;;;;;;;9.95;6.50;;;27.70;77.80;;;;;;5063965;28;20036;-43
2022/03/11 07:24:29;;;;;;;12.32;6.30;;;27.70;77.90;;;;;;5063488;28;21244;-38
2022/03/11 07:26:56;;;;;;;9.23;6.07;;;27.70;78.30;;;;;;5063797;28;20329;-40
2022/03/11 07:29:23;;;;;;;7.95;6.03;;;27.70;78.50;;;;;;5063686;28;20107;-40
2022/03/11 07:31:50;;;;;;;9.43;6.22;;;27.60;78.80;;;;;;5063375;28;20086;-38
2022/03/11 07:34:17;;;;;;;10.73;6.47;;;27.60;79.20;;;;;;5063876;28;20244;-40
2022/03/11 07:36:44;;;;;;;8.32;6.22;;;27.60;78.90;;;;;;5067759;28;20040;-39
2022/03/11 07:39:11;;;;;;;12.65;6.65;;;27.60;79.10;;;;;;5067573;28;20313;-40
2022/03/11 07:41:37;;;;;;;7.10;5.90;;;27.60;79.60;;;;;;5067788;28;20114;-40
2022/03/11 07:44:05;;;;;;;14.45;6.30;;;27.60;79.70;;;;;;5067807;28;20036;-39
2022/03/11 07:46:31;;;;;;;9.05;6.10;;;27.50;79.90;;;;;;5068028;28;20066;-43
2022/03/11 07:48:59;;;;;;;10.68;6.10;;;27.50;80.00;;;;;;5067475;28;20060;-39
2022/03/11 07:51:26;;;;;;;9.20;6.25;;;27.50;80.10;;;;;;5068018;28;19909;-41
2022/03/11 07:53:53;;;;;;;9.50;6.88;;;27.50;80.40;;;;;;5067589;28;20234;-37
2022/03/11 07:56:19;;;;;;;9.10;6.60;;;27.50;80.80;;;;;;5068178;28;20017;-41
2022/03/11 07:58:46;;;;;;;11.23;6.73;;;27.50;80.70;;;;;;5067352;28;20099;-40
2022/03/11 08:01:13;;;;;;;8.45;6.55;;;27.40;80.80;;;;;;5067697;28;20029;-37
2022/03/11 08:03:41;;;;;;;10.27;6.50;;;27.50;80.90;;;;;;5067418;28;20091;-41
2022/03/11 08:06:08;;;;;;;9.13;6.93;;;27.40;81.00;;;;;;5067098;28;20052;-37
2022/03/11 08:08:36;;;;;;;9.90;6.40;;;27.50;81.30;;;;;;5067244;28;20143;-37
2022/03/11 08:11:04;;;;;;;7.15;5.90;;;27.50;81.20;;;;;;5067512;28;19981;-37
2022/03/11 08:13:31;;;;;;;8.10;6.60;;;27.50;81.30;;;;;;5067184;28;20033;-40
2022/03/11 08:15:57;;;;;;;9.60;6.68;;;27.50;81.30;;;;;;5067461;28;20041;-38
2022/03/11 08:18:24;;;;;;;9.23;6.30;;;27.40;81.40;;;;;;5067066;28;20191;-39
2022/03/11 08:20:51;;;;;;;10.63;6.65;;;27.40;81.30;;;;;;5067088;28;20025;-40
2022/03/11 08:23:17;;;;;;;10.23;6.95;;;27.40;81.40;;;;;;5066754;28;20270;-42
2022/03/11 08:25:45;;;;;;;9.85;6.53;;;27.40;81.70;;;;;;5067265;28;20029;-40
2022/03/11 08:28:13;;;;;;;17.50;7.38;;;27.40;82.00;;;;;;5067034;28;20039;-40
2022/03/11 08:30:41;;;;;;;13.57;7.93;;;27.40;82.60;;;;;;5067006;28;20075;-44
2022/03/11 08:33:09;;;;;;;12.98;7.80;;;27.40;84.00;;;;;;5066523;28;20099;-44
2022/03/11 08:35:35;;;;;;;12.55;8.00;;;27.30;84.10;;;;;;5066851;28;20060;-41
2022/03/11 08:38:05;;;;;;;13.38;7.53;;;27.30;83.50;;;;;;5066442;28;20036;-40
2022/03/11 08:40:35;;;;;;;10.10;6.70;;;27.20;83.50;;;;;;5066778;28;20025;-41
2022/03/11 08:43:02;;;;;;;11.85;7.40;;;27.20;83.50;;;;;;5066428;28;20051;-43
2022/03/11 08:45:30;;;;;;;12.75;7.50;;;27.20;83.70;;;;;;5065751;28;20327;-38
2022/03/11 08:47:56;;;;;;;11.23;7.50;;;27.20;83.70;;;;;;5063975;28;20225;-38
2022/03/11 08:50:23;;;;;;;11.80;7.03;;;27.30;83.50;;;;;;5064888;28;20020;-38
2022/03/11 08:52:50;;;;;;;10.85;6.97;;;27.30;83.50;;;;;;5064265;28;20044;-39
2022/03/11 08:55:17;;;;;;;13.23;7.70;;;27.30;83.30;;;;;;5064671;28;20320;-39
2022/03/11 08:57:51;;;;;;;12.50;7.45;;;27.30;83.30;;;;;;5064709;28;20037;-38
2022/03/11 09:00:20;;;;;;;12.80;7.30;;;27.30;83.10;;;;;;5065347;28;20021;-41
2022/03/11 09:02:47;;;;;;;10.07;6.90;;;27.20;83.10;;;;;;5065885;28;20233;-39
2022/03/11 09:05:17;;;;;;;12.73;7.38;;;27.20;83.30;;;;;;5065918;28;20364;-38
2022/03/11 09:07:44;;;;;;;7.93;7.10;;;27.20;83.30;;;;;;5066018;28;20078;-38
2022/03/11 09:10:15;;;;;;;12.20;8.05;;;27.20;83.50;;;;;;5065885;28;19959;-36
2022/03/11 09:12:41;;;;;;;7.63;6.78;;;27.20;83.20;;;;;;5065600;28;20040;-41
2022/03/11 09:15:10;;;;;;;10.73;7.45;;;27.20;83.30;;;;;;5066025;28;20365;-38
2022/03/11 09:17:37;;;;;;;10.45;7.28;;;27.20;83.20;;;;;;5065811;28;20029;-37
2022/03/11 09:20:06;;;;;;;10.25;7.00;;;27.20;83.20;;;;;;5065947;28;20055;-38
2022/03/11 09:22:33;;;;;;;9.93;7.28;;;27.20;83.40;;;;;;5065656;28;20385;-37
2022/03/11 09:25:03;;;;;;;11.70;7.13;;;27.20;83.50;;;;;;5065848;28;20029;-40
2022/03/11 09:27:30;;;;;;;11.85;7.30;;;27.20;83.70;;;;;;5065454;28;20041;-40
2022/03/11 09:29:57;;;;;;;10.80;6.75;;;27.10;84.10;;;;;;5065637;28;20021;-39
2022/03/11 09:32:25;;;;;;;12.13;7.03;;;27.10;83.70;;;;;;5065488;28;20309;-38
2022/03/11 09:34:52;;;;;;;16.08;7.53;;;27.10;83.60;;;;;;5065364;28;20324;-37
2022/03/11 09:37:19;;;;;;;11.60;7.80;;;27.10;83.60;;;;;;5065515;28;20070;-37
2022/03/11 09:39:45;;;;;;;10.77;7.50;;;27.10;83.70;;;;;;5065416;28;20208;-38
2022/03/11 09:42:12;;;;;;;11.80;7.25;;;27.10;83.60;;;;;;5065284;28;20108;-38
2022/03/11 09:44:40;;;;;;;13.23;7.38;;;27.10;83.50;;;;;;5065373;28;20029;-38
2022/03/11 09:47:08;;;;;;;17.75;8.00;;;27.10;83.50;;;;;;5065205;28;20036;-38
2022/03/11 09:49:36;;;;;;;10.23;7.23;;;27.10;83.50;;;;;;5065177;28;20191;-39
2022/03/11 09:52:07;;;;;;;14.43;7.30;;;27.10;83.50;;;;;;5064998;28;20040;-38
2022/03/11 09:54:34;;;;;;;16.40;7.85;;;27.10;83.40;;;;;;5065166;28;20025;-38
2022/03/11 09:57:01;;;;;;;13.65;7.75;;;27.10;83.30;;;;;;5064860;28;20040;-38
2022/03/11 09:59:27;;;;;;;10.27;7.55;;;27.10;83.30;;;;;;5064181;28;20052;-38
2022/03/11 10:01:55;;;;;;;11.65;7.22;;;27.10;83.30;;;;;;5064779;28;20401;-38
2022/03/11 10:04:22;;;;;;;11.10;7.75;;;27.10;83.30;;;;;;5064679;28;20043;-38
2022/03/11 10:06:51;;;;;;;14.68;8.02;;;27.10;83.30;;;;;;5065351;28;20075;-39
2022/03/11 10:09:18;;;;;;;10.68;7.28;;;27.10;83.20;;;;;;5066310;28;20037;-39
2022/03/11 10:11:57;;;;;;;14.10;7.78;;;27.10;83.30;;;;;;5064862;28;20032;-37
2022/03/11 10:14:32;;;;;;;13.50;8.15;;;27.10;83.20;;;;;;5064776;28;20037;-40
2022/03/11 10:17:00;;;;;;;14.85;8.05;;;27.10;83.30;;;;;;5064606;28;20044;-38
2022/03/11 10:19:28;;;;;;;15.55;8.68;;;27.10;83.30;;;;;;5064612;28;20086;-38
2022/03/11 10:21:58;;;;;;;14.73;8.52;;;27.00;83.40;;;;;;5064628;28;20059;-39
2022/03/11 10:24:26;;;;;;;14.10;8.13;;;27.10;83.70;;;;;;5064612;28;20044;-38
2022/03/11 10:26:58;;;;;;;10.65;8.18;;;27.10;83.80;;;;;;5064544;28;20262;-38
2022/03/11 10:29:27;;;;;;;13.20;7.93;;;27.00;83.70;;;;;;5064454;28;20039;-42
2022/03/11 10:31:59;;;;;;;13.07;8.13;;;27.00;83.70;;;;;;5065346;28;20416;-39
2022/03/11 10:34:30;;;;;;;14.43;9.10;;;27.00;83.90;;;;;;5064605;28;20024;-39
2022/03/11 10:37:12;;;;;;;17.23;10.00;;;27.00;83.80;;;;;;5063959;28;20029;-43
2022/03/11 10:39:41;;;;;;;16.20;8.57;;;27.00;83.80;;;;;;5064409;28;20158;-42
2022/03/11 10:42:15;;;;;;;14.65;8.70;;;27.00;83.70;;;;;;5064103;28;20081;-40
2022/03/11 10:45:04;;;;;;;15.90;8.38;;;27.00;83.70;;;;;;5064371;28;20033;-40
2022/03/11 10:47:36;;;;;;;15.02;8.00;;;27.00;83.60;;;;;;5063984;28;20029;-38
2022/03/11 10:50:13;;;;;;;17.48;8.75;;;27.00;83.50;;;;;;5064320;28;20182;-38
2022/03/11 10:52:47;;;;;;;18.27;8.68;;;27.00;83.40;;;;;;5063996;28;20028;-40
2022/03/11 10:55:29;;;;;;;13.48;8.48;;;27.00;83.30;;;;;;5064018;28;20075;-39
2022/03/11 10:58:06;;;;;;;17.63;9.20;;;27.00;83.20;;;;;;5063981;28;20033;-39
2022/03/11 11:00:35;;;;;;;16.52;8.68;;;27.00;83.00;;;;;;5064561;28;20309;-38
2022/03/11 11:03:03;;;;;;;17.02;8.68;;;27.00;83.00;;;;;;5063662;28;20053;-38
2022/03/11 11:05:31;;;;;;;13.18;8.23;;;27.00;82.80;;;;;;5063833;28;20112;-40
2022/03/11 11:08:00;;;;;;;13.40;7.85;;;27.00;82.80;;;;;;5046219;28;20029;-38
2022/03/11 11:10:29;;;;;;;16.05;7.57;;;27.00;82.70;;;;;;5063695;28;20039;-44
2022/03/11 11:12:57;;;;;;;16.10;7.85;;;27.00;82.50;;;;;;5063489;28;20370;-39
2022/03/11 11:15:24;;;;;;;9.93;7.67;;;27.00;82.40;;;;;;5064058;28;20029;-40
2022/03/11 11:17:52;;;;;;;10.32;7.55;;;27.00;82.40;;;;;;5063792;28;20036;-38
2022/03/11 11:20:34;;;;;;;12.50;7.50;;;27.00;82.40;;;;;;5064003;28;20025;-38
2022/03/11 11:23:06;;;;;;;11.10;7.80;;;27.00;82.30;;;;;;5063705;28;20047;-41
2022/03/11 11:25:34;;;;;;;8.95;7.45;;;27.00;82.30;;;;;;5063783;28;20126;-40
2022/03/11 11:28:05;;;;;;;12.35;7.88;;;27.00;82.20;;;;;;5063776;28;20075;-40
2022/03/11 11:30:32;;;;;;;11.88;7.70;;;27.00;82.20;;;;;;5063861;28;20209;-42
2022/03/11 11:33:00;;;;;;;13.57;8.55;;;27.00;82.30;;;;;;5063647;28;20103;-39
2022/03/11 11:35:32;;;;;;;18.92;8.75;;;27.00;82.40;;;;;;5063803;28;20017;-41
2022/03/11 11:38:01;;;;;;;15.73;10.15;;;27.00;82.60;;;;;;5063232;28;20071;-39
2022/03/11 11:40:35;;;;;;;16.98;8.75;;;27.00;83.20;;;;;;5063651;28;20024;-38
2022/03/11 11:43:14;;;;;;;18.38;8.65;;;26.90;83.30;;;;;;5063491;28;20304;-41
2022/03/11 11:45:46;;;;;;;20.27;9.90;;;26.90;83.50;;;;;;5063929;28;20025;-37
2022/03/11 11:48:45;;;;;;;16.90;9.27;;;26.90;83.60;;;;;;5063539;28;20037;-37
2022/03/11 11:51:13;;;;;;;14.95;8.32;;;26.90;84.70;;;;;;5063813;28;20013;-36
2022/03/11 11:53:45;;;;;;;10.48;8.73;;;26.90;84.40;;;;;;5063075;28;20071;-40
2022/03/11 11:56:32;;;;;;;15.23;8.87;;;26.90;84.20;;;;;;5063351;28;20321;-38
2022/03/11 11:59:07;;;;;;;11.27;8.98;;;26.90;84.20;;;;;;5063095;28;20032;-42
2022/03/11 12:01:40;;;;;;;14.55;9.85;;;26.90;85.00;;;;;;5029343;28;20055;-37
2022/03/11 12:04:32;;;;;;;13.13;9.65;;;26.90;84.30;;;;;;5063204;28;20078;-38
2022/03/11 12:07:09;;;;;;;13.27;9.60;;;26.90;84.50;;;;;;5063197;28;20045;-37
2022/03/11 12:12:25;;;;;;;16.33;9.90;;;26.90;84.60;;;;;;5063223;28;20387;-38
2022/03/11 12:15:01;;;;;;;15.57;10.13;;;26.90;84.70;;;;;;5063120;28;20052;-37
2022/03/11 12:17:42;;;;;;;12.52;9.80;;;26.90;84.80;;;;;;5063450;28;20021;-38
2022/03/11 12:20:30;;;;;;;14.80;10.52;;;26.90;84.90;;;;;;5063144;28;20309;-37
2022/03/11 12:23:16;;;;;;;13.30;10.35;;;27.00;85.00;;;;;;5065956;28;20025;-38
2022/03/11 12:25:50;;;;;;;14.32;11.00;;;27.00;85.20;;;;;;5067267;28;20029;-38
2022/03/11 12:28:29;;;;;;;13.88;11.70;;;27.00;85.20;;;;;;5066753;28;20055;-38
2022/03/11 12:31:03;;;;;;;13.85;12.35;;;27.00;85.40;;;;;;5067049;28;20096;-39
2022/03/11 12:33:36;;;;;;;15.60;12.05;;;27.00;85.60;;;;;;5066679;28;20025;-39
2022/03/11 12:36:09;;;;;;;16.25;12.65;;;26.90;85.60;;;;;;5066826;28;20123;-36
2022/03/11 12:38:40;;;;;;;14.63;12.77;;;26.90;85.70;;;;;;5066721;28;20088;-42
2022/03/11 12:41:27;;;;;;;14.65;12.68;;;27.00;86.00;;;;;;5066730;28;20051;-36
2022/03/11 12:43:53;;;;;;;14.93;13.25;;;27.00;85.80;;;;;;5066430;28;20021;-39